Terminal Aerodrome Forecast
Issued by NWS

Home | Current Version | Previous Version | Text Only | Print | Product List | Glossary On
Versions: 1 2 3 4 5 6 7 8 9 10 11 12 13 14 15
168
FTUS46 KPDT 300520
TAFDLS
TAF
KDLS 300520Z 3006/3106 32014KT P6SM SCT050 BKN080
     FM301500 30015G25KT P6SM SCT070
     FM301800 30023G35KT P6SM SCT070
     FM310400 30018G24KT P6SM SKC=

USA.gov is the U.S. government's official web portal to all federal, state and local government web resources and services.